Time;durP1;ratioP1;P1;durP2;ratioP2;P2;SDS_P1;SDS_P2;PMS_P1;PMS_P2;Temp;Humidity;BMP_temperature;BMP_pressure;BME280_temperature;BME280_humidity;BME280_pressure;Samples;Min_cycle;Max_cycle;Signal;HPM_P1;HPM_P2
2019/04/10 00:01:54;;;;;;;115.7;85;;;;;;;;;;;;;
2019/04/10 00:04:17;;;;;;;127.5;90.5;;;;;;;;;;;;;
2019/04/10 00:06:43;;;;;;;117.9;89.4;;;;;;;;;;;;;
2019/04/10 00:09:09;;;;;;;117.7;87.1;;;;;;;;;;;;;
2019/04/10 00:11:37;;;;;;;103.4;80.9;;;;;;;;;;;;;
2019/04/10 00:13:59;;;;;;;131;89.3;;;;;;;;;;;;;
2019/04/10 00:16:27;;;;;;;117.8;84.6;;;;;;;;;;;;;
2019/04/10 00:18:53;;;;;;;113.5;83.2;;;;;;;;;;;;;
2019/04/10 00:21:20;;;;;;;109.2;84;;;;;;;;;;;;;
2019/04/10 00:23:45;;;;;;;113.6;85.3;;;;;;;;;;;;;
2019/04/10 00:26:13;;;;;;;109;83.2;;;;;;;;;;;;;
2019/04/10 00:28:37;;;;;;;123.3;88.1;;;;;;;;;;;;;
2019/04/10 00:31:01;;;;;;;118.9;85.8;;;;;;;;;;;;;
2019/04/10 00:33:28;;;;;;;114.8;86.7;;;;;;;;;;;;;
2019/04/10 00:35:52;;;;;;;129.5;94.3;;;;;;;;;;;;;
2019/04/10 00:38:18;;;;;;;111.4;84.9;;;;;;;;;;;;;
2019/04/10 00:40:43;;;;;;;110.6;84.8;;;;;;;;;;;;;
2019/04/10 00:43:09;;;;;;;113.2;86;;;;;;;;;;;;;
2019/04/10 00:45:34;;;;;;;118.1;86.5;;;;;;;;;;;;;
2019/04/10 00:48:04;;;;;;;133.1;95.3;;;;;;;;;;;;;
2019/04/10 00:50:27;;;;;;;118.2;86.3;;;;;;;;;;;;;
2019/04/10 00:52:59;;;;;;;118.4;89.2;;;;;;;;;;;;;
2019/04/10 00:55:20;;;;;;;115.2;86.3;;;;;;;;;;;;;
2019/04/10 00:57:46;;;;;;;110.1;83.9;;;;;;;;;;;;;
2019/04/10 01:00:10;;;;;;;111.8;88;;;;;;;;;;;;;
2019/04/10 01:02:35;;;;;;;111.9;87;;;;;;;;;;;;;
2019/04/10 01:05:01;;;;;;;112.3;83.7;;;;;;;;;;;;;
2019/04/10 01:07:30;;;;;;;114.8;85.5;;;;;;;;;;;;;
2019/04/10 01:09:53;;;;;;;120.3;89.2;;;;;;;;;;;;;
2019/04/10 01:12:21;;;;;;;117.6;87.8;;;;;;;;;;;;;
2019/04/10 01:14:46;;;;;;;127.2;91.7;;;;;;;;;;;;;
2019/04/10 01:17:10;;;;;;;114.5;85.4;;;;;;;;;;;;;
2019/04/10 01:19:35;;;;;;;109.7;83.1;;;;;;;;;;;;;
2019/04/10 01:22:01;;;;;;;113.1;83.9;;;;;;;;;;;;;
2019/04/10 01:24:26;;;;;;;114.6;85.3;;;;;;;;;;;;;
2019/04/10 01:26:51;;;;;;;108.1;83.3;;;;;;;;;;;;;
2019/04/10 01:29:17;;;;;;;113.8;85.6;;;;;;;;;;;;;
2019/04/10 01:31:42;;;;;;;115.2;87.7;;;;;;;;;;;;;
2019/04/10 01:34:09;;;;;;;120.1;87.5;;;;;;;;;;;;;
2019/04/10 01:36:33;;;;;;;90.5;74.4;;;;;;;;;;;;;
2019/04/10 01:39:05;;;;;;;88.5;70.3;;;;;;;;;;;;;
2019/04/10 01:41:28;;;;;;;89.5;73.2;;;;;;;;;;;;;
2019/04/10 01:43:53;;;;;;;94;72.9;;;;;;;;;;;;;
2019/04/10 01:46:19;;;;;;;96.6;79.2;;;;;;;;;;;;;
2019/04/10 01:48:47;;;;;;;86.3;71.1;;;;;;;;;;;;;
2019/04/10 01:51:12;;;;;;;85.2;70.5;;;;;;;;;;;;;
2019/04/10 01:53:40;;;;;;;84.3;71;;;;;;;;;;;;;
2019/04/10 01:56:03;;;;;;;85.3;69.9;;;;;;;;;;;;;
2019/04/10 01:58:28;;;;;;;90.5;72.4;;;;;;;;;;;;;
2019/04/10 02:03:18;;;;;;;83.2;67.3;;;;;;;;;;;;;
2019/04/10 02:05:44;;;;;;;85.4;69.5;;;;;;;;;;;;;
2019/04/10 02:08:11;;;;;;;74.6;64.2;;;;;;;;;;;;;
2019/04/10 02:10:36;;;;;;;81.8;65.5;;;;;;;;;;;;;
2019/04/10 02:13:04;;;;;;;87.2;68.2;;;;;;;;;;;;;
2019/04/10 02:15:29;;;;;;;83.7;67.5;;;;;;;;;;;;;
2019/04/10 02:17:57;;;;;;;79.8;65.8;;;;;;;;;;;;;
2019/04/10 02:20:22;;;;;;;81.7;64.8;;;;;;;;;;;;;
2019/04/10 02:22:47;;;;;;;77.4;65;;;;;;;;;;;;;
2019/04/10 02:25:12;;;;;;;85.1;69;;;;;;;;;;;;;
2019/04/10 02:27:37;;;;;;;78;63.2;;;;;;;;;;;;;
2019/04/10 02:30:05;;;;;;;81.1;65.4;;;;;;;;;;;;;
2019/04/10 02:32:28;;;;;;;79.8;67.6;;;;;;;;;;;;;
2019/04/10 02:34:54;;;;;;;78.7;66;;;;;;;;;;;;;
2019/04/10 02:39:00;;;;;;;80.7;63.4;;;;;;;8.55;87.07129;950.9952;;;;
2019/04/10 02:41:25;;;;;;;80.8;66.5;;;;;;;8.58;87.81445;950.9191;;;;
2019/04/10 02:43:50;;;;;;;83.1;68.6;;;;;;;8.59;88.05664;950.9646;;;;
2019/04/10 02:46:14;;;;;;;80.9;65.6;;;;;;;8.55;87.74902;950.9825;;;;
2019/04/10 02:48:43;;;;;;;79.5;65.4;;;;;;;8.56;86.49902;950.9944;;;;
2019/04/10 02:51:10;;;;;;;80.8;67;;;;;;;8.46;86.66113;951.0309;;;;
2019/04/10 02:53:42;;;;;;;81.7;65.4;;;;;;;8.53;86.79199;951.0693;;;;
2019/04/10 02:56:29;;;;;;;77.6;63.8;;;;;;;8.58;86.88379;951.0338;;;;
2019/04/10 02:58:44;;;;;;;86;68.1;;;;;;;8.44;88.24414;951.0491;;;;
2019/04/10 03:01:11;;;;;;;73.8;62.5;;;;;;;;;;;;;
2019/04/10 03:03:34;;;;;;;79.7;63.2;;;;;;;;;;;;;
2019/04/10 03:06:03;;;;;;;76.4;64.9;;;;;;;;;;;;;
2019/04/10 03:08:24;;;;;;;79.4;64.6;;;;;;;;;;;;;
2019/04/10 03:10:49;;;;;;;78.6;64.3;;;;;;;;;;;;;
2019/04/10 03:13:14;;;;;;;84.6;67.9;;;;;;;;;;;;;
2019/04/10 03:15:40;;;;;;;79.9;66.7;;;;;;;;;;;;;
2019/04/10 03:18:05;;;;;;;79.7;65.4;;;;;;;;;;;;;
2019/04/10 03:20:30;;;;;;;81.4;66.9;;;;;;;;;;;;;
2019/04/10 03:22:56;;;;;;;85.2;67.7;;;;;;;;;;;;;
2019/04/10 03:25:21;;;;;;;87.6;69.8;;;;;;;;;;;;;
2019/04/10 03:27:46;;;;;;;84.2;70.4;;;;;;;;;;;;;
2019/04/10 03:30:11;;;;;;;89.2;71.8;;;;;;;;;;;;;
2019/04/10 03:35:06;;;;;;;86.6;70.4;;;;;;;;;;;;;
2019/04/10 03:37:27;;;;;;;84.8;68.8;;;;;;;;;;;;;
2019/04/10 03:39:52;;;;;;;84.3;69.4;;;;;;;;;;;;;
2019/04/10 03:42:17;;;;;;;92.1;75.6;;;;;;;;;;;;;
2019/04/10 03:44:42;;;;;;;85.4;71.3;;;;;;;;;;;;;
2019/04/10 03:47:07;;;;;;;94.9;74.7;;;;;;;;;;;;;
2019/04/10 03:49:33;;;;;;;89.4;72.3;;;;;;;;;;;;;
2019/04/10 03:51:59;;;;;;;85.8;71.1;;;;;;;;;;;;;
2019/04/10 03:54:27;;;;;;;84.6;70.3;;;;;;;;;;;;;
2019/04/10 03:56:52;;;;;;;90.5;74.2;;;;;;;;;;;;;
2019/04/10 03:59:17;;;;;;;94.2;77.1;;;;;;;;;;;;;
2019/04/10 04:02:41;;;;;;;92;75.6;;;;;;;8.07;88.00684;951.2686;;;;
2019/04/10 04:05:12;;;;;;;95.3;76;;;;;;;8.01;88.84277;951.177;;;;
2019/04/10 04:07:37;;;;;;;91.1;73.6;;;;;;;7.92;88.61914;951.1783;;;;
2019/04/10 04:10:03;;;;;;;87.3;71.3;;;;;;;7.95;88.88867;951.2132;;;;
2019/04/10 04:12:28;;;;;;;92.1;75.1;;;;;;;7.91;88.7627;951.1163;;;;
2019/04/10 04:14:53;;;;;;;85.9;71.5;;;;;;;7.97;88.35352;951.152;;;;
2019/04/10 04:17:18;;;;;;;88.7;71.2;;;;;;;;;;;;;
2019/04/10 04:19:43;;;;;;;92.7;74.5;;;;;;;;;;;;;
2019/04/10 04:22:09;;;;;;;88.8;74.4;;;;;;;;;;;;;
2019/04/10 04:24:33;;;;;;;92.7;74.1;;;;;;;;;;;;;
2019/04/10 04:26:58;;;;;;;91.5;74.4;;;;;;;;;;;;;
2019/04/10 04:29:24;;;;;;;93;77.3;;;;;;;;;;;;;
2019/04/10 04:31:51;;;;;;;93.7;76.5;;;;;;;;;;;;;
2019/04/10 04:34:17;;;;;;;96.7;80.7;;;;;;;;;;;;;
2019/04/10 04:36:43;;;;;;;100.3;80.9;;;;;;;;;;;;;
2019/04/10 04:39:07;;;;;;;92.8;77.4;;;;;;;;;;;;;
2019/04/10 04:41:32;;;;;;;94.6;75.6;;;;;;;;;;;;;
2019/04/10 04:43:58;;;;;;;87.7;71.5;;;;;;;;;;;;;
2019/04/10 04:46:22;;;;;;;89.7;73.1;;;;;;;;;;;;;
2019/04/10 04:48:48;;;;;;;93.9;73.9;;;;;;;;;;;;;
2019/04/10 04:51:13;;;;;;;80.9;65.7;;;;;;;;;;;;;
2019/04/10 04:53:38;;;;;;;80.1;67;;;;;;;;;;;;;
2019/04/10 04:56:03;;;;;;;80;63.8;;;;;;;;;;;;;
2019/04/10 04:58:29;;;;;;;76.9;64;;;;;;;;;;;;;
2019/04/10 05:00:54;;;;;;;75.9;63.1;;;;;;;;;;;;;
2019/04/10 05:03:20;;;;;;;71.1;60.5;;;;;;;;;;;;;
2019/04/10 05:05:46;;;;;;;72.6;60.1;;;;;;;;;;;;;
2019/04/10 05:08:11;;;;;;;70;59.2;;;;;;;;;;;;;
2019/04/10 05:10:37;;;;;;;72.9;58.2;;;;;;;;;;;;;
2019/04/10 05:13:02;;;;;;;67.9;58;;;;;;;;;;;;;
2019/04/10 05:15:32;;;;;;;67.9;55.6;;;;;;;;;;;;;
2019/04/10 05:17:55;;;;;;;67.3;56.1;;;;;;;;;;;;;
2019/04/10 05:20:24;;;;;;;70.8;56.1;;;;;;;;;;;;;
2019/04/10 05:22:48;;;;;;;65.3;54.6;;;;;;;;;;;;;
2019/04/10 05:25:15;;;;;;;63.9;54.8;;;;;;;;;;;;;
2019/04/10 05:27:40;;;;;;;67;56.6;;;;;;;;;;;;;
2019/04/10 05:30:05;;;;;;;67;55.7;;;;;;;;;;;;;
2019/04/10 05:32:32;;;;;;;68.3;55.8;;;;;;;;;;;;;
2019/04/10 05:34:57;;;;;;;66.3;55.3;;;;;;;;;;;;;
2019/04/10 05:37:23;;;;;;;66.4;56.2;;;;;;;;;;;;;
2019/04/10 05:39:49;;;;;;;62.4;53.7;;;;;;;;;;;;;
2019/04/10 05:42:19;;;;;;;66.7;55;;;;;;;;;;;;;
2019/04/10 05:44:43;;;;;;;63.6;54;;;;;;;;;;;;;
2019/04/10 05:47:09;;;;;;;63.4;53.8;;;;;;;;;;;;;
2019/04/10 05:49:35;;;;;;;62.5;53.2;;;;;;;;;;;;;
2019/04/10 05:51:59;;;;;;;61.1;53.5;;;;;;;;;;;;;
2019/04/10 05:54:26;;;;;;;66.1;54.8;;;;;;;;;;;;;
2019/04/10 05:56:51;;;;;;;60.8;52.6;;;;;;;;;;;;;
2019/04/10 05:59:17;;;;;;;63.4;54.4;;;;;;;;;;;;;
2019/04/10 06:01:41;;;;;;;61.9;53.4;;;;;;;;;;;;;
2019/04/10 06:04:06;;;;;;;63.4;53.9;;;;;;;;;;;;;
2019/04/10 06:06:32;;;;;;;63.7;53.4;;;;;;;;;;;;;
2019/04/10 06:08:57;;;;;;;58.7;52.2;;;;;;;;;;;;;
2019/04/10 06:11:22;;;;;;;62.3;53.5;;;;;;;;;;;;;
2019/04/10 06:13:48;;;;;;;60.1;52.7;;;;;;;;;;;;;
2019/04/10 06:16:13;;;;;;;62.8;53.2;;;;;;;;;;;;;
2019/04/10 06:18:38;;;;;;;60.9;52.4;;;;;;;;;;;;;
2019/04/10 06:21:04;;;;;;;63.9;53.5;;;;;;;;;;;;;
2019/04/10 06:23:31;;;;;;;61.4;53;;;;;;;;;;;;;
2019/04/10 06:25:55;;;;;;;63.9;53.7;;;;;;;;;;;;;
2019/04/10 06:28:22;;;;;;;60;52.8;;;;;;;;;;;;;
2019/04/10 06:30:47;;;;;;;58.7;52;;;;;;;;;;;;;
2019/04/10 06:33:12;;;;;;;60.6;52.4;;;;;;;;;;;;;
2019/04/10 06:35:38;;;;;;;60;51.7;;;;;;;;;;;;;
2019/04/10 06:38:03;;;;;;;57.9;51.5;;;;;;;;;;;;;
2019/04/10 06:40:28;;;;;;;59.5;51.8;;;;;;;;;;;;;
2019/04/10 06:42:53;;;;;;;63.5;53.1;;;;;;;;;;;;;
2019/04/10 06:45:19;;;;;;;61.8;52.9;;;;;;;;;;;;;
2019/04/10 06:47:44;;;;;;;61.7;54.4;;;;;;;;;;;;;
2019/04/10 06:50:10;;;;;;;61;52.7;;;;;;;;;;;;;
2019/04/10 06:52:34;;;;;;;63.5;54.1;;;;;;;;;;;;;
2019/04/10 06:55:00;;;;;;;64.7;53.6;;;;;;;;;;;;;
2019/04/10 06:57:25;;;;;;;58.3;51.7;;;;;;;;;;;;;
2019/04/10 06:59:49;;;;;;;62;52.9;;;;;;;;;;;;;
2019/04/10 07:02:14;;;;;;;60.1;51.3;;;;;;;;;;;;;
2019/04/10 07:04:41;;;;;;;60.8;52.1;;;;;;;;;;;;;
2019/04/10 07:07:06;;;;;;;60.7;53.7;;;;;;;;;;;;;
2019/04/10 07:09:32;;;;;;;61.8;52.7;;;;;;;;;;;;;
2019/04/10 07:11:57;;;;;;;60.8;53.6;;;;;;;;;;;;;
2019/04/10 07:14:22;;;;;;;59.5;52.9;;;;;;;;;;;;;
2019/04/10 07:16:48;;;;;;;61.1;52.5;;;;;;;;;;;;;
2019/04/10 07:19:14;;;;;;;60.5;52.4;;;;;;;;;;;;;
2019/04/10 07:21:39;;;;;;;61.8;51.9;;;;;;;;;;;;;
2019/04/10 07:24:05;;;;;;;61.1;53.1;;;;;;;;;;;;;
2019/04/10 07:26:32;;;;;;;61.9;53.6;;;;;;;;;;;;;
2019/04/10 07:28:58;;;;;;;61.9;54;;;;;;;;;;;;;
2019/04/10 07:31:23;;;;;;;60.2;53.7;;;;;;;;;;;;;
2019/04/10 07:33:47;;;;;;;59;52.2;;;;;;;;;;;;;
2019/04/10 07:36:13;;;;;;;59.1;52.5;;;;;;;;;;;;;
2019/04/10 07:38:40;;;;;;;57.1;50.9;;;;;;;;;;;;;
2019/04/10 07:41:06;;;;;;;61.1;51.7;;;;;;;;;;;;;
2019/04/10 07:43:31;;;;;;;57;49.4;;;;;;;;;;;;;
2019/04/10 07:46:03;;;;;;;58.2;51.8;;;;;;;;;;;;;
2019/04/10 07:48:36;;;;;;;63.4;52.1;;;;;;;;;;;;;
2019/04/10 07:50:58;;;;;;;59.1;52.6;;;;;;;;;;;;;
2019/04/10 07:53:21;;;;;;;58.6;52.2;;;;;;;;;;;;;
2019/04/10 07:55:46;;;;;;;59.2;51.5;;;;;;;;;;;;;
2019/04/10 07:58:11;;;;;;;63.2;53.7;;;;;;;;;;;;;
2019/04/10 08:00:36;;;;;;;59.8;52.3;;;;;;;;;;;;;
2019/04/10 08:03:01;;;;;;;59.7;51.2;;;;;;;;;;;;;
2019/04/10 08:05:26;;;;;;;60.5;51.9;;;;;;;;;;;;;
2019/04/10 08:07:53;;;;;;;57.2;51;;;;;;;;;;;;;
2019/04/10 08:10:18;;;;;;;57.2;50.9;;;;;;;;;;;;;
2019/04/10 08:12:43;;;;;;;60.4;52.5;;;;;;;;;;;;;
2019/04/10 08:15:09;;;;;;;57.1;50.9;;;;;;;;;;;;;
2019/04/10 08:17:35;;;;;;;60;51;;;;;;;;;;;;;
2019/04/10 08:20:00;;;;;;;58.1;51.1;;;;;;;;;;;;;
2019/04/10 08:22:27;;;;;;;59.6;51.3;;;;;;;;;;;;;
2019/04/10 08:24:52;;;;;;;60.2;51.8;;;;;;;;;;;;;
2019/04/10 08:27:17;;;;;;;57.9;51.4;;;;;;;;;;;;;
2019/04/10 08:29:43;;;;;;;58.1;51.4;;;;;;;;;;;;;
2019/04/10 08:32:08;;;;;;;58;51.6;;;;;;;;;;;;;
2019/04/10 08:34:33;;;;;;;60.5;53.7;;;;;;;;;;;;;
2019/04/10 08:36:58;;;;;;;58.2;51.9;;;;;;;;;;;;;
2019/04/10 08:39:23;;;;;;;59.1;52.5;;;;;;;;;;;;;
2019/04/10 08:41:48;;;;;;;58.7;52.4;;;;;;;;;;;;;
2019/04/10 08:44:13;;;;;;;57.6;51.3;;;;;;;;;;;;;
2019/04/10 08:46:38;;;;;;;58.4;51.8;;;;;;;;;;;;;
2019/04/10 08:49:03;;;;;;;59.6;52.3;;;;;;;;;;;;;
2019/04/10 08:51:29;;;;;;;56.3;50.4;;;;;;;;;;;;;
2019/04/10 08:53:54;;;;;;;59.9;53.3;;;;;;;;;;;;;
2019/04/10 08:56:19;;;;;;;57.1;50.6;;;;;;;;;;;;;
2019/04/10 08:58:45;;;;;;;56.5;50.4;;;;;;;;;;;;;
2019/04/10 09:01:10;;;;;;;60.4;54;;;;;;;;;;;;;
2019/04/10 09:04:37;;;;;;;57.6;51.4;;;;;;;;;;;;;
2019/04/10 09:06:48;;;;;;;;;;;;;;;;;;;;;
2019/04/10 09:09:08;;;;;;;58.4;51.7;;;;;;;;;;;;;
2019/04/10 09:11:21;;;;;;;58.3;51.9;;;;;;;;;;;;;
2019/04/10 09:13:46;;;;;;;56.1;50;;;;;;;;;;;;;
2019/04/10 09:16:11;;;;;;;59.6;53.1;;;;;;;;;;;;;
2019/04/10 09:18:36;;;;;;;61.5;54.8;;;;;;;;;;;;;
2019/04/10 09:21:01;;;;;;;58;51.7;;;;;;;;;;;;;
2019/04/10 09:23:27;;;;;;;58.8;52.8;;;;;;;;;;;;;
2019/04/10 09:25:52;;;;;;;57;50.7;;;;;;;;;;;;;
2019/04/10 09:28:18;;;;;;;58.8;52.4;;;;;;;;;;;;;
2019/04/10 09:30:43;;;;;;;60.8;54.2;;;;;;;;;;;;;
2019/04/10 09:33:09;;;;;;;58.6;52.3;;;;;;;;;;;;;
2019/04/10 09:35:34;;;;;;;59;52;;;;;;;;;;;;;
2019/04/10 09:38:02;;;;;;;58.3;52;;;;;;;;;;;;;
2019/04/10 09:40:25;;;;;;;60.4;53.2;;;;;;;;;;;;;
2019/04/10 09:42:50;;;;;;;62;54.5;;;;;;;;;;;;;
2019/04/10 09:45:15;;;;;;;59.4;53;;;;;;;;;;;;;
2019/04/10 09:47:41;;;;;;;60.9;54.2;;;;;;;;;;;;;
2019/04/10 09:50:06;;;;;;;57.9;51.6;;;;;;;;;;;;;
2019/04/10 09:52:32;;;;;;;61.5;54.8;;;;;;;;;;;;;
2019/04/10 09:54:57;;;;;;;58.2;51.9;;;;;;;;;;;;;
2019/04/10 09:57:24;;;;;;;60.3;53.7;;;;;;;;;;;;;
2019/04/10 11:09:46;;;;;;;60.9;54.3;;;;;;;;;;;;;
2019/04/10 11:12:11;;;;;;;69.1;60.8;;;;;;;;;;;;;
2019/04/10 11:14:37;;;;;;;68.2;60.8;;;;;;;;;;;;;
2019/04/10 11:17:02;;;;;;;67.2;60;;;;;;;;;;;;;
2019/04/10 11:19:28;;;;;;;68.2;60.7;;;;;;;;;;;;;
2019/04/10 11:21:53;;;;;;;65.6;58.6;;;;;;;;;;;;;
2019/04/10 11:24:19;;;;;;;69.1;61.5;;;;;;;;;;;;;
2019/04/10 11:26:45;;;;;;;66.1;59;;;;;;;;;;;;;
2019/04/10 11:29:09;;;;;;;66.6;59.7;;;;;;;;;;;;;
2019/04/10 11:31:34;;;;;;;68.4;61;;;;;;;;;;;;;
2019/04/10 11:33:59;;;;;;;71.3;63.7;;;;;;;;;;;;;
2019/04/10 11:36:24;;;;;;;70.6;63.1;;;;;;;;;;;;;
2019/04/10 11:38:50;;;;;;;70.4;63.1;;;;;;;;;;;;;
2019/04/10 11:41:15;;;;;;;69.3;61.8;;;;;;;;;;;;;
2019/04/10 11:43:41;;;;;;;71.2;63.5;;;;;;;;;;;;;
2019/04/10 11:46:06;;;;;;;69.3;62;;;;;;;;;;;;;
2019/04/10 11:48:31;;;;;;;70.2;62.6;;;;;;;;;;;;;
2019/04/10 11:50:56;;;;;;;70.6;63.2;;;;;;;;;;;;;
2019/04/10 11:53:22;;;;;;;68;61;;;;;;;;;;;;;
2019/04/10 11:55:49;;;;;;;68;60.7;;;;;;;;;;;;;
2019/04/10 11:58:13;;;;;;;67.8;60.5;;;;;;;;;;;;;
2019/04/10 12:00:39;;;;;;;67.9;60.6;;;;;;;;;;;;;
2019/04/10 12:03:04;;;;;;;70.9;63.2;;;;;;;;;;;;;
2019/04/10 12:05:29;;;;;;;70.9;63.3;;;;;;;;;;;;;
2019/04/10 12:07:54;;;;;;;70.6;63;;;;;;;;;;;;;
2019/04/10 12:10:19;;;;;;;70.1;62.7;;;;;;;;;;;;;
2019/04/10 12:12:45;;;;;;;71.9;64.1;;;;;;;;;;;;;
2019/04/10 12:15:09;;;;;;;70.2;62.7;;;;;;;;;;;;;
2019/04/10 12:17:36;;;;;;;67.7;60.4;;;;;;;;;;;;;
2019/04/10 12:20:03;;;;;;;69.3;61.6;;;;;;;;;;;;;
2019/04/10 12:22:28;;;;;;;66.8;59.7;;;;;;;;;;;;;
2019/04/10 12:24:54;;;;;;;68.8;61.6;;;;;;;;;;;;;
2019/04/10 12:27:28;;;;;;;66.6;59.7;;;;;;;;;;;;;
2019/04/10 12:30:03;;;;;;;70.2;62.7;;;;;;;;;;;;;
2019/04/10 12:32:23;;;;;;;67.7;60.4;;;;;;;;;;;;;
2019/04/10 12:34:48;;;;;;;68.4;60.6;;;;;;;;;;;;;
2019/04/10 12:37:13;;;;;;;69.9;62.4;;;;;;;;;;;;;
2019/04/10 12:39:39;;;;;;;69.5;62.1;;;;;;;;;;;;;
2019/04/10 12:42:04;;;;;;;72.3;64.5;;;;;;;;;;;;;
2019/04/10 12:44:29;;;;;;;71.4;63.6;;;;;;;;;;;;;
2019/04/10 12:46:54;;;;;;;70;62.6;;;;;;;;;;;;;
2019/04/10 12:49:21;;;;;;;70.5;62.8;;;;;;;;;;;;;
2019/04/10 12:51:48;;;;;;;73.2;65.5;;;;;;;;;;;;;
2019/04/10 12:54:14;;;;;;;73.8;66;;;;;;;;;;;;;
2019/04/10 12:56:51;;;;;;;72;64.2;;;;;;;;;;;;;
2019/04/10 12:59:17;;;;;;;69;61.6;;;;;;;;;;;;;
2019/04/10 13:01:42;;;;;;;70.8;63.3;;;;;;;;;;;;;
2019/04/10 13:04:06;;;;;;;71.7;63.7;;;;;;;;;;;;;
2019/04/10 13:06:36;;;;;;;71;63.3;;;;;;;;;;;;;
2019/04/10 13:09:02;;;;;;;69.9;61.3;;;;;;;;;;;;;
2019/04/10 13:11:27;;;;;;;69.2;61.6;;;;;;;;;;;;;
2019/04/10 13:13:52;;;;;;;69.3;61.7;;;;;;;;;;;;;
2019/04/10 13:16:17;;;;;;;68.4;61;;;;;;;;;;;;;
2019/04/10 13:18:42;;;;;;;69;61.4;;;;;;;;;;;;;
2019/04/10 13:21:07;;;;;;;67.4;60.2;;;;;;;;;;;;;
2019/04/10 13:23:33;;;;;;;67.8;60.5;;;;;;;;;;;;;
2019/04/10 13:25:58;;;;;;;68;60.7;;;;;;;;;;;;;
2019/04/10 13:28:23;;;;;;;67.7;60.2;;;;;;;;;;;;;
2019/04/10 13:30:49;;;;;;;69.1;61.7;;;;;;;;;;;;;
2019/04/10 13:33:14;;;;;;;68.1;60.6;;;;;;;;;;;;;
2019/04/10 13:35:39;;;;;;;69.1;60.8;;;;;;;;;;;;;
2019/04/10 13:38:04;;;;;;;68.9;61.4;;;;;;;;;;;;;
2019/04/10 13:40:29;;;;;;;69.6;60.8;;;;;;;;;;;;;
2019/04/10 13:42:56;;;;;;;70.2;62.5;;;;;;;;;;;;;
2019/04/10 13:45:21;;;;;;;73.5;63.7;;;;;;;;;;;;;
2019/04/10 13:47:46;;;;;;;69.5;61.4;;;;;;;;;;;;;
2019/04/10 13:50:11;;;;;;;76;63.6;;;;;;;;;;;;;
2019/04/10 13:52:38;;;;;;;72.8;64.8;;;;;;;;;;;;;
2019/04/10 13:55:02;;;;;;;79;67.2;;;;;;;;;;;;;
2019/04/10 13:57:26;;;;;;;75.1;66.1;;;;;;;;;;;;;
2019/04/10 13:59:52;;;;;;;71.4;62.8;;;;;;;;;;;;;
2019/04/10 14:02:27;;;;;;;70.7;62.4;;;;;;;;;;;;;
2019/04/10 14:04:44;;;;;;;70.7;62.9;;;;;;;;;;;;;
2019/04/10 14:07:08;;;;;;;69.8;62.2;;;;;;;;;;;;;
2019/04/10 14:09:34;;;;;;;70.6;61.3;;;;;;;;;;;;;
2019/04/10 14:11:59;;;;;;;69.5;62;;;;;;;;;;;;;
2019/04/10 14:14:24;;;;;;;69;61.6;;;;;;;;;;;;;
2019/04/10 14:16:49;;;;;;;71.7;61.8;;;;;;;;;;;;;
2019/04/10 14:19:17;;;;;;;66.9;59.6;;;;;;;;;;;;;
2019/04/10 14:21:42;;;;;;;68.2;60.7;;;;;;;;;;;;;
2019/04/10 14:24:11;;;;;;;72.2;62.1;;;;;;;;;;;;;
2019/04/10 14:26:45;;;;;;;67.6;59.1;;;;;;;;;;;;;
2019/04/10 14:29:07;;;;;;;66.3;59.1;;;;;;;;;;;;;
2019/04/10 14:31:34;;;;;;;64.5;56.8;;;;;;;;;;;;;
2019/04/10 14:33:54;;;;;;;64.8;57.7;;;;;;;;;;;;;
2019/04/10 14:36:19;;;;;;;66.6;59.3;;;;;;;;;;;;;
2019/04/10 14:38:44;;;;;;;68.1;59.5;;;;;;;;;;;;;
2019/04/10 14:41:11;;;;;;;64.7;55.9;;;;;;;;;;;;;
2019/04/10 14:43:36;;;;;;;67.3;58.8;;;;;;;;;;;;;
2019/04/10 14:46:01;;;;;;;64.3;57;;;;;;;;;;;;;
2019/04/10 14:48:29;;;;;;;70.5;57.2;;;;;;;;;;;;;
2019/04/10 14:50:53;;;;;;;63.1;56.2;;;;;;;;;;;;;
2019/04/10 14:53:21;;;;;;;62.9;55.5;;;;;;;;;;;;;
2019/04/10 14:55:44;;;;;;;62.8;55.4;;;;;;;;;;;;;
2019/04/10 14:58:09;;;;;;;63.7;56.7;;;;;;;;;;;;;
2019/04/10 15:03:02;;;;;;;64.9;56.6;;;;;;;;;;;;;
2019/04/10 15:05:27;;;;;;;65.7;57.5;;;;;;;;;;;;;
2019/04/10 15:07:50;;;;;;;63.8;56.4;;;;;;;;;;;;;
2019/04/10 15:10:15;;;;;;;64.5;57.5;;;;;;;;;;;;;
2019/04/10 15:12:40;;;;;;;69.2;59;;;;;;;;;;;;;
2019/04/10 15:15:05;;;;;;;65.9;58.6;;;;;;;;;;;;;
2019/04/10 15:17:30;;;;;;;66.6;57.7;;;;;;;;;;;;;
2019/04/10 15:19:55;;;;;;;67.8;59.7;;;;;;;;;;;;;
2019/04/10 15:22:21;;;;;;;66.6;59.3;;;;;;;;;;;;;
2019/04/10 15:24:46;;;;;;;70.4;60.5;;;;;;;;;;;;;
2019/04/10 15:27:12;;;;;;;69.4;59.3;;;;;;;;;;;;;
2019/04/10 15:29:39;;;;;;;69;59.7;;;;;;;;;;;;;
2019/04/10 15:32:07;;;;;;;66.3;58.2;;;;;;;;;;;;;
2019/04/10 15:34:32;;;;;;;67.8;58.3;;;;;;;;;;;;;
2019/04/10 15:36:56;;;;;;;65.7;58.5;;;;;;;;;;;;;
2019/04/10 15:39:21;;;;;;;67.1;59.3;;;;;;;;;;;;;
2019/04/10 15:41:48;;;;;;;66.3;58.1;;;;;;;;;;;;;
2019/04/10 15:44:14;;;;;;;65.7;58.7;;;;;;;;;;;;;
2019/04/10 15:46:41;;;;;;;65.6;57.6;;;;;;;;;;;;;
2019/04/10 15:49:06;;;;;;;66.3;58.4;;;;;;;;;;;;;
2019/04/10 15:51:34;;;;;;;65;57.3;;;;;;;;;;;;;
2019/04/10 15:53:59;;;;;;;67.6;57.7;;;;;;;;;;;;;
2019/04/10 15:56:22;;;;;;;67.6;57.5;;;;;;;;;;;;;
2019/04/10 15:58:48;;;;;;;66.5;56.5;;;;;;;;;;;;;
2019/04/10 16:01:16;;;;;;;67;56.9;;;;;;;;;;;;;
2019/04/10 16:03:39;;;;;;;64.6;57.6;;;;;;;;;;;;;
2019/04/10 16:06:04;;;;;;;67;57.8;;;;;;;;;;;;;
2019/04/10 16:08:30;;;;;;;65.7;57;;;;;;;;;;;;;
2019/04/10 16:11:10;;;;;;;64.9;56.4;;;;;;;;;;;;;
2019/04/10 16:13:27;;;;;;;65.3;58.2;;;;;;;;;;;;;
2019/04/10 16:15:47;;;;;;;66.6;57.6;;;;;;;;;;;;;
2019/04/10 16:18:21;;;;;;;66.9;57.8;;;;;;;;;;;;;
2019/04/10 16:20:39;;;;;;;67.3;59.2;;;;;;;;;;;;;
2019/04/10 16:23:10;;;;;;;66.9;58.4;;;;;;;;;;;;;
2019/04/10 16:25:31;;;;;;;67.6;58.8;;;;;;;;;;;;;
2019/04/10 16:27:54;;;;;;;65.1;57.5;;;;;;;;;;;;;
2019/04/10 16:30:24;;;;;;;67.8;57.8;;;;;;;;;;;;;
2019/04/10 16:32:46;;;;;;;67.3;59.9;;;;;;;;;;;;;
2019/04/10 16:35:10;;;;;;;66.4;59.2;;;;;;;;;;;;;
2019/04/10 16:37:36;;;;;;;66.9;56.6;;;;;;;;;;;;;
2019/04/10 16:40:01;;;;;;;63.1;56.2;;;;;;;;;;;;;
2019/04/10 16:42:26;;;;;;;63.5;55.2;;;;;;;;;;;;;
2019/04/10 16:44:52;;;;;;;63.1;56.1;;;;;;;;;;;;;
2019/04/10 16:47:17;;;;;;;63.1;55.6;;;;;;;;;;;;;
2019/04/10 16:49:41;;;;;;;67.1;56.6;;;;;;;;;;;;;
2019/04/10 16:52:06;;;;;;;68.9;57.4;;;;;;;;;;;;;
2019/04/10 16:54:32;;;;;;;66.2;56.4;;;;;;;;;;;;;
2019/04/10 16:56:57;;;;;;;66.5;59.2;;;;;;;;;;;;;
2019/04/10 16:59:22;;;;;;;67.6;58.5;;;;;;;;;;;;;
2019/04/10 17:01:47;;;;;;;71.1;60.3;;;;;;;;;;;;;
2019/04/10 17:04:13;;;;;;;70.4;61.3;;;;;;;;;;;;;
2019/04/10 17:06:41;;;;;;;72.9;59.5;;;;;;;;;;;;;
2019/04/10 17:09:13;;;;;;;71.9;61.3;;;;;;;;;;;;;
2019/04/10 17:11:33;;;;;;;74;63.1;;;;;;;;;;;;;
2019/04/10 17:13:58;;;;;;;75.4;63.4;;;;;;;;;;;;;
2019/04/10 17:16:23;;;;;;;76.7;65;;;;;;;;;;;;;
2019/04/10 17:18:48;;;;;;;75;64.6;;;;;;;;;;;;;
2019/04/10 17:21:13;;;;;;;75.2;64.3;;;;;;;;;;;;;
2019/04/10 17:23:38;;;;;;;75.2;66.2;;;;;;;;;;;;;
2019/04/10 17:26:05;;;;;;;72.3;63.2;;;;;;;;;;;;;
2019/04/10 17:28:30;;;;;;;73.5;64.4;;;;;;;;;;;;;
2019/04/10 17:30:54;;;;;;;74.3;64.6;;;;;;;;;;;;;
2019/04/10 17:33:19;;;;;;;71;60.4;;;;;;;;;;;;;
2019/04/10 17:35:44;;;;;;;74;63.2;;;;;;;;;;;;;
2019/04/10 17:38:09;;;;;;;70.9;62.2;;;;;;;;;;;;;
2019/04/10 17:40:35;;;;;;;71.7;62.5;;;;;;;;;;;;;
2019/04/10 17:43:00;;;;;;;69.7;60.5;;;;;;;;;;;;;
2019/04/10 17:45:25;;;;;;;73.1;63.7;;;;;;;;;;;;;
2019/04/10 17:47:50;;;;;;;73.8;62.6;;;;;;;;;;;;;
2019/04/10 17:50:15;;;;;;;72.4;62;;;;;;;;;;;;;
2019/04/10 17:52:40;;;;;;;75;62.2;;;;;;;;;;;;;
2019/04/10 17:55:06;;;;;;;71.6;62.2;;;;;;;;;;;;;
2019/04/10 17:57:31;;;;;;;76.8;64;;;;;;;;;;;;;
2019/04/10 17:59:57;;;;;;;75.1;62.7;;;;;;;;;;;;;
2019/04/10 18:02:22;;;;;;;78.3;63.9;;;;;;;;;;;;;
2019/04/10 18:04:47;;;;;;;77.9;63.6;;;;;;;;;;;;;
2019/04/10 18:07:13;;;;;;;76;63.4;;;;;;;;;;;;;
2019/04/10 18:09:38;;;;;;;77.4;64.7;;;;;;;;;;;;;
2019/04/10 18:12:04;;;;;;;74.5;63.9;;;;;;;;;;;;;
2019/04/10 18:14:29;;;;;;;74.6;62.3;;;;;;;;;;;;;
2019/04/10 18:16:54;;;;;;;75.3;62.8;;;;;;;;;;;;;
2019/04/10 18:19:19;;;;;;;79.3;63.8;;;;;;;;;;;;;
2019/04/10 18:21:44;;;;;;;78.7;64.5;;;;;;;;;;;;;
2019/04/10 18:24:09;;;;;;;78.3;64.8;;;;;;;;;;;;;
2019/04/10 18:26:38;;;;;;;74.5;63.9;;;;;;;;;;;;;
2019/04/10 18:29:02;;;;;;;74.8;62.1;;;;;;;;;;;;;
2019/04/10 18:31:30;;;;;;;79.1;64.5;;;;;;;;;;;;;
2019/04/10 18:34:05;;;;;;;77.8;65.1;;;;;;;;;;;;;
2019/04/10 18:36:30;;;;;;;75.2;62.7;;;;;;;;;;;;;
2019/04/10 18:38:56;;;;;;;73.3;62.6;;;;;;;;;;;;;
2019/04/10 18:41:21;;;;;;;80.3;64.2;;;;;;;;;;;;;
2019/04/10 18:43:47;;;;;;;80.9;64.4;;;;;;;;;;;;;
2019/04/10 18:46:12;;;;;;;77.8;62.8;;;;;;;;;;;;;
2019/04/10 18:48:37;;;;;;;74.8;63.1;;;;;;;;;;;;;
2019/04/10 18:51:02;;;;;;;76.9;63.2;;;;;;;;;;;;;
2019/04/10 18:53:27;;;;;;;74.7;63.3;;;;;;;;;;;;;
2019/04/10 18:55:52;;;;;;;77;62.4;;;;;;;;;;;;;
2019/04/10 18:58:20;;;;;;;79;65.2;;;;;;;;;;;;;
2019/04/10 19:03:13;;;;;;;79;63.6;;;;;;;;;;;;;
2019/04/10 19:05:35;;;;;;;79.2;62;;;;;;;;;;;;;
2019/04/10 19:07:57;;;;;;;76.5;62.6;;;;;;;;;;;;;
2019/04/10 19:10:23;;;;;;;78.7;63.7;;;;;;;;;;;;;
2019/04/10 19:12:47;;;;;;;77.5;62.4;;;;;;;;;;;;;
2019/04/10 19:15:13;;;;;;;74.6;64.5;;;;;;;;;;;;;
2019/04/10 19:17:38;;;;;;;76.1;61.2;;;;;;;;;;;;;
2019/04/10 19:20:05;;;;;;;75.1;61.4;;;;;;;;;;;;;
2019/04/10 19:22:30;;;;;;;76.9;61.2;;;;;;;;;;;;;
2019/04/10 19:24:58;;;;;;;74.7;61.6;;;;;;;;;;;;;
2019/04/10 19:27:20;;;;;;;74;61.4;;;;;;;;;;;;;
2019/04/10 19:29:45;;;;;;;73.9;59.8;;;;;;;;;;;;;
2019/04/10 19:32:13;;;;;;;71.2;60.7;;;;;;;;;;;;;
2019/04/10 19:34:35;;;;;;;72.3;61.9;;;;;;;;;;;;;
2019/04/10 19:37:00;;;;;;;75.4;61.9;;;;;;;;;;;;;
2019/04/10 19:39:25;;;;;;;73.1;61.5;;;;;;;;;;;;;
2019/04/10 19:41:51;;;;;;;73.2;61.3;;;;;;;;;;;;;
2019/04/10 19:44:16;;;;;;;72.9;59.8;;;;;;;;;;;;;
2019/04/10 19:46:42;;;;;;;73.1;61.4;;;;;;;;;;;;;
2019/04/10 19:49:08;;;;;;;76.1;61.5;;;;;;;;;;;;;
2019/04/10 19:51:33;;;;;;;73.2;60.3;;;;;;;;;;;;;
2019/04/10 19:53:58;;;;;;;73.7;61.3;;;;;;;;;;;;;
2019/04/10 19:56:23;;;;;;;74.7;61.5;;;;;;;;;;;;;
2019/04/10 19:58:48;;;;;;;70.5;59;;;;;;;;;;;;;
2019/04/10 20:01:13;;;;;;;69.5;58.7;;;;;;;;;;;;;
2019/04/10 20:03:39;;;;;;;72.9;59.4;;;;;;;;;;;;;
2019/04/10 20:06:03;;;;;;;77.4;61.8;;;;;;;;;;;;;
2019/04/10 20:08:29;;;;;;;75;60.1;;;;;;;;;;;;;
2019/04/10 20:10:54;;;;;;;71.7;58.1;;;;;;;;;;;;;
2019/04/10 20:13:19;;;;;;;69.6;58.7;;;;;;;;;;;;;
2019/04/10 20:15:44;;;;;;;73.6;61.3;;;;;;;;;;;;;
2019/04/10 20:18:09;;;;;;;74.8;60.2;;;;;;;;;;;;;
2019/04/10 20:20:34;;;;;;;75.6;61.2;;;;;;;;;;;;;
2019/04/10 20:23:00;;;;;;;74.7;60;;;;;;;;;;;;;
2019/04/10 20:25:25;;;;;;;75.4;63.2;;;;;;;;;;;;;
2019/04/10 20:27:50;;;;;;;73.6;61.7;;;;;;;;;;;;;
2019/04/10 20:30:16;;;;;;;73.7;62.4;;;;;;;;;;;;;
2019/04/10 20:32:40;;;;;;;73.7;61.9;;;;;;;;;;;;;
2019/04/10 20:35:05;;;;;;;76.2;64;;;;;;;;;;;;;
2019/04/10 20:37:31;;;;;;;74.4;63;;;;;;;;;;;;;
2019/04/10 20:39:57;;;;;;;79.1;64;;;;;;;;;;;;;
2019/04/10 20:42:22;;;;;;;76.3;63.4;;;;;;;;;;;;;
2019/04/10 20:44:47;;;;;;;76.6;63.5;;;;;;;;;;;;;
2019/04/10 20:47:12;;;;;;;74.6;61.4;;;;;;;;;;;;;
2019/04/10 20:49:39;;;;;;;79.2;65;;;;;;;;;;;;;
2019/04/10 20:52:04;;;;;;;78.2;63.8;;;;;;;;;;;;;